Time;durP1;ratioP1;P1;durP2;ratioP2;P2;SDS_P1;SDS_P2;PMS_P1;PMS_P2;Temp;Humidity;BMP_temperature;BMP_pressure;BME280_temperature;BME280_humidity;BME280_pressure;Samples;Min_cycle;Max_cycle;Signal;HPM_P1;HPM_P2
2021/05/17 00:00:12;;;;;;;2.60;1.00;;;;;;;19.33;43.62;99752.16;350613;28;1101;-50
2021/05/17 00:00:24;;;;;;;2.35;1.00;;;;;;;19.35;43.68;99753.84;350582;28;1156;-56
2021/05/17 00:00:36;;;;;;;2.13;1.00;;;;;;;19.36;43.60;99744.81;350726;28;1631;-52
2021/05/17 00:00:48;;;;;;;2.10;1.00;;;;;;;19.35;43.61;99746.66;350564;28;1144;-56
2021/05/17 00:01:00;;;;;;;2.10;1.00;;;;;;;19.32;43.80;99750.47;350730;28;2139;-57
2021/05/17 00:01:12;;;;;;;2.10;1.00;;;;;;;19.36;43.50;99750.16;350789;28;1081;-52
2021/05/17 00:01:26;;;;;;;2.00;1.20;;;;;;;19.36;43.55;99761.72;350739;28;1171;-57
2021/05/17 00:01:37;;;;;;;2.38;1.15;;;;;;;19.36;43.59;99745.66;350064;28;23864;-58
2021/05/17 00:01:51;;;;;;;2.25;1.10;;;;;;;19.35;43.28;99748.50;350226;28;1165;-59
2021/05/17 00:02:03;;;;;;;1.98;1.00;;;;;;;19.33;43.62;99754.03;349881;28;24139;-59
2021/05/17 00:02:16;;;;;;;1.80;1.00;;;;;;;19.30;43.70;99749.81;350734;28;2032;-60
2021/05/17 00:02:28;;;;;;;2.05;1.00;;;;;;;19.31;43.70;99745.28;350795;28;1093;-55
2021/05/17 00:02:42;;;;;;;2.13;1.15;;;;;;;19.32;43.60;99749.66;350749;28;1145;-52
2021/05/17 00:02:56;;;;;;;1.92;1.00;;;;;;;19.32;43.83;99749.66;349030;28;47929;-60
2021/05/17 00:03:08;;;;;;;2.22;1.10;;;;;;;19.33;43.38;99751.34;350691;28;1058;-50
2021/05/17 00:03:20;;;;;;;2.50;1.20;;;;;;;19.33;43.68;99751.34;350505;28;1132;-56
2021/05/17 00:03:35;;;;;;;2.22;1.10;;;;;;;19.33;43.57;99746.00;350787;28;1089;-59
2021/05/17 00:03:49;;;;;;;3.05;1.20;;;;;;;19.34;43.53;99747.66;349096;28;48938;-59
2021/05/17 00:04:04;;;;;;;3.17;1.20;;;;;;;19.35;43.61;99745.81;350035;28;23972;-58
2021/05/17 00:04:16;;;;;;;2.65;1.05;;;;;;;19.34;43.25;99750.31;349884;28;24439;-59
2021/05/17 00:04:36;;;;;;;2.70;1.02;;;;;;;19.35;43.50;99743.16;350910;28;1219;-58
2021/05/17 00:04:49;;;;;;;2.13;1.10;;;;;;;19.34;43.13;99747.66;348278;28;70567;-55
2021/05/17 00:05:02;;;;;;;1.70;1.10;;;;;;;19.33;43.52;99746.81;350742;28;1243;-51
2021/05/17 00:05:14;;;;;;;1.73;1.05;;;;;;;19.33;43.20;99746.00;350800;28;1225;-53
2021/05/17 00:05:26;;;;;;;2.05;1.13;;;;;;;19.34;43.29;99744.97;350834;28;1278;-59
2021/05/17 00:05:38;;;;;;;2.20;1.27;;;;;;;19.35;43.54;99749.34;350974;28;1088;-59
2021/05/17 00:05:51;;;;;;;2.67;1.38;;;;;;;19.35;43.66;99749.34;350689;28;1370;-56
2021/05/17 00:06:05;;;;;;;3.13;1.25;;;;;;;19.34;43.51;99744.97;350831;28;1056;-54
2021/05/17 00:06:18;;;;;;;3.05;1.20;;;;;;;19.35;43.58;99753.84;350793;28;1278;-55
2021/05/17 00:06:30;;;;;;;2.50;1.17;;;;;;;19.33;43.59;99744.13;350819;28;1085;-57
2021/05/17 00:06:42;;;;;;;3.47;1.30;;;;;;;19.33;43.41;99741.47;350697;28;2068;-55
2021/05/17 00:06:55;;;;;;;3.45;1.30;;;;;;;19.32;43.38;99746.97;350688;28;1229;-53
2021/05/17 00:07:09;;;;;;;2.63;1.10;;;;;;;19.32;43.84;99749.66;350850;28;1073;-59
2021/05/17 00:07:21;;;;;;;2.35;1.10;;;;;;;19.32;43.47;99747.81;349858;28;24179;-58
2021/05/17 00:07:32;;;;;;;2.20;1.15;;;;;;;19.34;43.60;99750.31;350763;28;1056;-59
2021/05/17 00:07:45;;;;;;;2.13;1.10;;;;;;;19.35;43.59;99753.84;350892;28;1168;-60
2021/05/17 00:07:57;;;;;;;1.55;0.90;;;;;;;19.33;43.81;99752.16;350798;28;1240;-59
2021/05/17 00:08:09;;;;;;;2.00;0.90;;;;;;;19.35;43.43;99753.84;350875;28;1356;-58
2021/05/17 00:08:20;;;;;;;2.00;1.00;;;;;;;19.33;43.66;99748.66;350804;28;1091;-57
2021/05/17 00:08:32;;;;;;;2.00;1.10;;;;;;;19.33;43.70;99756.69;350431;28;1242;-60
2021/05/17 00:08:46;;;;;;;2.38;1.20;;;;;;;19.34;43.58;99753.00;350919;28;1078;-61
2021/05/17 00:08:58;;;;;;;2.33;1.20;;;;;;;19.33;43.72;99752.16;349910;28;25101;-60
2021/05/17 00:09:10;;;;;;;1.40;0.93;;;;;;;19.31;43.41;99748.78;350903;28;1213;-57
2021/05/17 00:09:23;;;;;;;1.80;1.00;;;;;;;19.32;43.73;99757.69;350545;28;1086;-58
2021/05/17 00:09:35;;;;;;;2.60;1.00;;;;;;;19.33;43.68;99756.69;350672;28;1339;-56
2021/05/17 00:09:46;;;;;;;2.63;1.10;;;;;;;19.33;43.85;99756.69;350653;28;1089;-54
2021/05/17 00:09:58;;;;;;;2.42;1.10;;;;;;;19.33;43.44;99751.34;350675;28;1093;-59
2021/05/17 00:10:11;;;;;;;2.58;1.17;;;;;;;19.32;43.58;99749.66;350720;28;1093;-56
2021/05/17 00:10:23;;;;;;;2.20;1.10;;;;;;;19.31;43.70;99746.13;348930;28;3020;-59
2021/05/17 00:10:35;;;;;;;2.17;1.00;;;;;;;19.31;43.85;99758.66;348004;28;1069;-60
2021/05/17 00:10:47;;;;;;;2.40;1.05;;;;;;;19.31;44.07;99751.47;347790;28;1337;-59
2021/05/17 00:10:59;;;;;;;2.45;1.00;;;;;;;19.32;43.61;99747.81;347643;28;1203;-60
2021/05/17 00:11:11;;;;;;;1.98;1.05;;;;;;;19.33;43.74;99752.16;347993;28;1082;-60
2021/05/17 00:11:24;;;;;;;2.28;1.10;;;;;;;19.33;43.64;99752.16;348857;28;1106;-60
2021/05/17 00:11:35;;;;;;;2.40;1.10;;;;;;;19.36;43.59;99747.50;349438;28;1289;-60
2021/05/17 00:11:47;;;;;;;2.65;1.25;;;;;;;19.34;43.46;99753.00;349040;28;1135;-60
2021/05/17 00:11:59;;;;;;;3.00;1.20;;;;;;;19.33;43.47;99748.66;349351;28;1147;-60
2021/05/17 00:12:13;;;;;;;2.92;1.13;;;;;;;19.34;43.56;99747.66;349410;28;1250;-60
2021/05/17 00:12:24;;;;;;;2.70;1.10;;;;;;;19.33;43.51;99749.50;350394;28;1106;-59
2021/05/17 00:12:36;;;;;;;3.00;1.20;;;;;;;19.33;43.53;99749.50;350684;28;1098;-58
2021/05/17 00:12:48;;;;;;;2.63;1.20;;;;;;;19.32;43.80;99749.66;350660;28;1142;-59
2021/05/17 00:13:00;;;;;;;3.33;1.35;;;;;;;19.32;43.37;99744.28;350842;28;1150;-53
2021/05/17 00:13:12;;;;;;;2.92;1.30;;;;;;;19.36;43.51;99744.81;350709;28;1143;-56
2021/05/17 00:13:24;;;;;;;2.35;1.17;;;;;;;19.35;43.73;99748.50;350791;28;1141;-59
2021/05/17 00:13:36;;;;;;;1.60;1.00;;;;;;;19.35;43.63;99748.50;350869;28;1389;-51
2021/05/17 00:13:48;;;;;;;1.80;1.05;;;;;;;19.34;43.35;99753.00;350728;28;1245;-59
2021/05/17 00:13:59;;;;;;;2.25;1.15;;;;;;;19.35;43.60;99756.53;350908;28;1098;-57
2021/05/17 00:14:11;;;;;;;2.17;1.20;;;;;;;19.35;43.59;99743.97;350832;28;1244;-55
2021/05/17 00:14:24;;;;;;;1.95;1.15;;;;;;;19.35;43.52;99753.84;350664;28;1070;-52
2021/05/17 00:14:37;;;;;;;2.25;1.10;;;;;;;19.32;43.32;99749.66;350833;28;2028;-57
2021/05/17 00:14:48;;;;;;;2.85;1.20;;;;;;;19.35;43.44;99748.50;350808;28;1272;-49
2021/05/17 00:15:03;;;;;;;2.47;1.10;;;;;;;19.35;43.70;99746.66;350833;28;1095;-54
2021/05/17 00:15:17;;;;;;;2.63;1.30;;;;;;;19.32;43.55;99747.81;350047;28;22119;-57
2021/05/17 00:15:32;;;;;;;2.33;1.30;;;;;;;19.33;43.62;99741.47;349120;28;48848;-52
2021/05/17 00:15:46;;;;;;;1.92;1.15;;;;;;;19.30;43.64;99741.78;349945;28;23945;-54
2021/05/17 00:15:58;;;;;;;2.05;1.08;;;;;;;19.30;43.57;99746.28;349806;28;24103;-56
2021/05/17 00:16:11;;;;;;;2.08;1.00;;;;;;;19.30;43.64;99755.16;350649;28;1139;-60
2021/05/17 00:16:22;;;;;;;2.03;1.02;;;;;;;19.28;43.56;99745.59;350666;28;1341;-60
2021/05/17 00:16:34;;;;;;;1.77;1.00;;;;;;;19.30;43.72;99743.59;350668;28;1135;-57
2021/05/17 00:16:46;;;;;;;2.50;1.00;;;;;;;19.28;43.62;99738.41;350818;28;1057;-61
2021/05/17 00:16:58;;;;;;;2.33;0.90;;;;;;;19.30;43.74;99744.44;350397;28;1568;-60
2021/05/17 00:17:13;;;;;;;2.53;1.05;;;;;;;19.31;43.62;99750.63;350727;28;1070;-60
2021/05/17 00:17:25;;;;;;;2.85;1.20;;;;;;;19.31;43.86;99753.31;349010;28;47122;-59
2021/05/17 00:17:38;;;;;;;3.45;1.30;;;;;;;19.29;43.61;99748.13;350873;28;1088;-60
2021/05/17 00:17:52;;;;;;;3.15;1.23;;;;;;;19.30;43.47;99738.25;350648;28;1622;-59
2021/05/17 00:18:04;;;;;;;2.28;1.25;;;;;;;19.28;43.35;99746.44;351085;28;1596;-59
2021/05/17 00:18:16;;;;;;;1.92;1.20;;;;;;;19.30;43.85;99748.94;352160;28;1072;-49
2021/05/17 00:18:28;;;;;;;2.33;1.10;;;;;;;19.28;43.74;99746.44;352240;28;2146;-61
2021/05/17 00:18:40;;;;;;;2.13;1.10;;;;;;;19.28;43.60;99748.28;352312;28;1080;-55
2021/05/17 00:18:52;;;;;;;2.20;1.13;;;;;;;19.28;43.36;99745.59;352107;28;1318;-60
2021/05/17 00:19:05;;;;;;;2.03;1.00;;;;;;;19.30;43.62;99751.63;352200;28;1392;-60
2021/05/17 00:19:17;;;;;;;1.77;1.00;;;;;;;19.28;43.94;99749.09;353157;28;1324;-56
2021/05/17 00:19:28;;;;;;;2.10;1.08;;;;;;;19.31;43.55;99742.59;353562;28;1139;-58
2021/05/17 00:19:41;;;;;;;2.95;1.20;;;;;;;19.32;43.40;99744.28;353638;28;1142;-59
2021/05/17 00:19:53;;;;;;;2.85;1.20;;;;;;;19.32;43.55;99750.47;353497;28;2053;-61
2021/05/17 00:20:07;;;;;;;2.72;1.30;;;;;;;19.30;43.78;99756.97;353550;28;1228;-60
2021/05/17 00:20:19;;;;;;;2.17;1.13;;;;;;;19.30;43.62;99752.47;352523;28;24994;-58
2021/05/17 00:20:31;;;;;;;2.28;1.10;;;;;;;19.31;43.56;99753.31;352128;28;1092;-61
2021/05/17 00:20:42;;;;;;;2.00;1.00;;;;;;;19.33;43.57;99756.69;352086;28;1054;-60
2021/05/17 00:20:54;;;;;;;1.92;0.95;;;;;;;19.29;43.53;99753.47;350739;28;1160;-60
2021/05/17 00:21:07;;;;;;;1.63;0.95;;;;;;;19.30;43.71;99751.63;350630;28;1147;-60
2021/05/17 00:21:19;;;;;;;1.90;1.10;;;;;;;19.27;44.20;99752.75;350478;28;1197;-58
2021/05/17 00:21:31;;;;;;;2.30;1.20;;;;;;;19.27;43.70;99757.28;350779;28;1164;-61
2021/05/17 00:21:42;;;;;;;2.75;1.17;;;;;;;19.28;43.83;99750.94;350343;28;1751;-60
2021/05/17 00:21:54;;;;;;;2.83;1.20;;;;;;;19.28;43.47;99754.47;350506;28;1038;-58
2021/05/17 00:22:06;;;;;;;2.38;1.17;;;;;;;19.26;44.01;99745.75;350612;28;1897;-60
2021/05/17 00:22:18;;;;;;;2.55;1.20;;;;;;;19.26;43.78;99751.09;350586;28;1015;-60
2021/05/17 00:22:30;;;;;;;2.92;1.20;;;;;;;19.27;44.09;99750.09;350731;28;1097;-59
2021/05/17 00:22:42;;;;;;;2.42;1.10;;;;;;;19.28;43.56;99756.31;350770;28;2156;-60
2021/05/17 00:22:54;;;;;;;1.98;1.00;;;;;;;19.27;43.74;99746.59;351422;28;1123;-61
2021/05/17 00:23:06;;;;;;;2.17;1.10;;;;;;;19.27;43.56;99749.25;352122;28;1277;-60
2021/05/17 00:23:18;;;;;;;2.58;1.10;;;;;;;19.28;43.27;99753.63;352101;28;1177;-61
2021/05/17 00:23:30;;;;;;;2.38;1.10;;;;;;;19.29;43.51;99745.44;352095;28;1109;-57
2021/05/17 00:23:42;;;;;;;1.70;1.08;;;;;;;19.28;43.62;99749.09;352199;28;2172;-59
2021/05/17 00:23:56;;;;;;;1.85;1.15;;;;;;;19.30;43.62;99749.81;350620;28;49448;-60
2021/05/17 00:24:11;;;;;;;2.00;1.20;;;;;;;19.30;43.66;99749.81;352120;28;2221;-60
2021/05/17 00:24:22;;;;;;;1.95;1.10;;;;;;;19.31;43.47;99748.78;351156;28;25420;-58
2021/05/17 00:24:34;;;;;;;1.92;1.00;;;;;;;19.30;43.55;99746.28;352238;28;1225;-61
2021/05/17 00:24:46;;;;;;;2.28;1.10;;;;;;;19.30;43.87;99746.28;352205;28;1056;-54
2021/05/17 00:24:59;;;;;;;2.03;1.10;;;;;;;19.31;43.63;99753.31;352295;28;1166;-60
2021/05/17 00:25:11;;;;;;;2.33;1.15;;;;;;;19.28;43.58;99750.94;352238;28;1215;-60
2021/05/17 00:25:25;;;;;;;2.40;1.20;;;;;;;19.27;43.71;99750.09;351856;28;1232;-61
2021/05/17 00:25:37;;;;;;;2.17;1.10;;;;;;;19.29;43.65;99749.97;352286;28;1409;-58
2021/05/17 00:26:24;;;;;;;2.00;1.10;;;;;;;19.29;43.65;99749.97;352104;28;1274;-60
2021/05/17 00:26:35;;;;;;;1.80;1.00;;;;;;;19.37;43.33;99749.19;349900;28;69738;-60
2021/05/17 00:26:47;;;;;;;2.10;1.00;;;;;;;19.36;43.46;99759.06;352142;28;1076;-59
2021/05/17 00:26:59;;;;;;;2.25;1.10;;;;;;;19.36;43.66;99753.69;352072;28;1142;-59
2021/05/17 00:27:14;;;;;;;1.90;1.00;;;;;;;19.34;43.56;99755.69;351310;28;24073;-60
2021/05/17 00:27:26;;;;;;;2.13;1.17;;;;;;;19.32;43.30;99750.47;351802;28;1178;-59
2021/05/17 00:27:39;;;;;;;2.10;1.10;;;;;;;19.31;43.39;99747.97;352084;28;1068;-58
2021/05/17 00:27:56;;;;;;;1.90;0.95;;;;;;;19.27;43.57;99751.94;351795;28;1287;-60
2021/05/17 00:28:08;;;;;;;1.80;0.90;;;;;;;19.27;43.56;99751.94;349621;28;72169;-60
2021/05/17 00:28:20;;;;;;;1.60;0.90;;;;;;;19.28;43.69;99751.78;351980;28;1142;-59
2021/05/17 00:28:34;;;;;;;2.04;1.10;;;;;;;19.30;43.57;99749.81;351200;28;1655;-59
2021/05/17 00:28:46;;;;;;;2.00;1.05;;;;;;;19.31;43.55;99747.97;350056;28;23556;-54
2021/05/17 00:28:58;;;;;;;2.13;1.00;;;;;;;19.28;43.42;99748.28;350817;28;1134;-58
2021/05/17 00:29:11;;;;;;;2.88;1.10;;;;;;;19.30;43.70;99748.94;350559;28;2178;-59
2021/05/17 00:29:22;;;;;;;2.72;1.17;;;;;;;19.31;43.86;99754.16;351119;28;1221;-60
2021/05/17 00:29:38;;;;;;;2.58;1.25;;;;;;;19.32;43.41;99749.66;352191;28;1298;-58
2021/05/17 00:29:50;;;;;;;2.60;1.20;;;;;;;19.31;43.47;99750.63;348128;28;72496;-60
2021/05/17 00:30:06;;;;;;;1.98;1.08;;;;;;;19.29;43.58;99742.75;349047;28;48156;-54
2021/05/17 00:30:19;;;;;;;1.85;1.00;;;;;;;19.29;43.40;99742.75;350483;28;1705;-53
2021/05/17 00:30:32;;;;;;;1.48;0.90;;;;;;;19.29;43.55;99748.13;349798;28;27916;-55
2021/05/17 00:30:44;;;;;;;1.75;1.08;;;;;;;19.28;43.52;99749.09;350800;28;1073;-55
2021/05/17 00:30:56;;;;;;;1.90;1.20;;;;;;;19.28;43.48;99742.91;350875;28;1086;-58
2021/05/17 00:31:07;;;;;;;2.17;1.00;;;;;;;19.27;43.57;99750.09;351015;28;1136;-57
2021/05/17 00:31:19;;;;;;;2.13;1.00;;;;;;;19.28;43.59;99745.59;350927;28;1147;-56
2021/05/17 00:31:32;;;;;;;2.17;0.90;;;;;;;19.28;43.67;99743.75;351042;28;1209;-56
2021/05/17 00:31:45;;;;;;;1.88;0.85;;;;;;;19.27;43.45;99744.72;351001;28;1336;-58
2021/05/17 00:31:57;;;;;;;1.98;0.93;;;;;;;19.27;43.29;99751.94;350923;28;1130;-57
2021/05/17 00:32:09;;;;;;;2.30;1.10;;;;;;;19.27;43.71;99746.59;350876;28;1053;-56
2021/05/17 00:32:21;;;;;;;2.54;1.30;;;;;;;19.27;43.56;99741.22;350813;28;1262;-53
2021/05/17 00:32:33;;;;;;;2.40;1.27;;;;;;;19.30;43.67;99746.28;351944;28;1060;-52
2021/05/17 00:32:45;;;;;;;2.13;1.00;;;;;;;19.29;43.51;99745.44;351549;28;1942;-54
2021/05/17 00:32:58;;;;;;;2.00;0.95;;;;;;;19.28;43.59;99749.09;352315;28;1310;-54
2021/05/17 00:33:10;;;;;;;2.40;1.02;;;;;;;19.27;43.83;99751.94;352238;28;6478;-58
2021/05/17 00:33:22;;;;;;;2.78;1.10;;;;;;;19.28;43.79;99743.75;352356;28;1011;-55
2021/05/17 00:33:34;;;;;;;2.70;1.13;;;;;;;19.30;43.53;99741.78;352458;28;1222;-54
2021/05/17 00:33:48;;;;;;;2.38;1.13;;;;;;;19.30;43.65;99744.44;351407;28;23808;-46
2021/05/17 00:34:00;;;;;;;1.85;1.20;;;;;;;19.30;43.50;99739.09;352424;28;2060;-49
2021/05/17 00:34:12;;;;;;;1.73;1.10;;;;;;;19.30;43.51;99751.63;352618;28;1080;-58
2021/05/17 00:34:24;;;;;;;1.88;1.00;;;;;;;19.29;43.17;99733.91;350857;28;1247;-54
2021/05/17 00:34:36;;;;;;;2.10;1.00;;;;;;;19.31;43.50;99746.13;350999;28;1025;-59
2021/05/17 00:34:48;;;;;;;2.67;1.00;;;;;;;19.32;43.52;99733.59;350710;28;1051;-59
2021/05/17 00:35:00;;;;;;;2.53;1.00;;;;;;;19.32;43.71;99739.78;350998;28;1143;-59
2021/05/17 00:35:12;;;;;;;2.70;1.10;;;;;;;19.33;43.52;99746.81;351063;28;1065;-59
2021/05/17 00:35:24;;;;;;;2.05;1.20;;;;;;;19.31;43.50;99742.59;350879;28;1280;-52
2021/05/17 00:35:36;;;;;;;1.75;1.00;;;;;;;19.30;43.62;99741.78;350900;28;1186;-52
2021/05/17 00:35:50;;;;;;;1.90;1.05;;;;;;;19.29;43.71;99745.44;350777;28;1459;-54
2021/05/17 00:36:02;;;;;;;2.45;1.13;;;;;;;19.30;43.46;99744.44;349584;28;1139;-56
2021/05/17 00:36:14;;;;;;;2.72;1.15;;;;;;;19.30;43.74;99741.78;349631;28;1134;-48
2021/05/17 00:36:26;;;;;;;2.83;1.20;;;;;;;19.26;43.68;99740.41;350349;28;1151;-57
2021/05/17 00:36:39;;;;;;;2.38;1.20;;;;;;;19.28;43.46;99743.75;350881;28;1110;-52
2021/05/17 00:36:52;;;;;;;2.08;1.17;;;;;;;19.30;42.95;99735.56;350924;28;1150;-49
2021/05/17 00:37:03;;;;;;;1.70;1.05;;;;;;;19.29;43.64;99740.09;351058;28;1156;-51
2021/05/17 00:37:16;;;;;;;1.75;1.05;;;;;;;19.27;43.51;99739.38;350930;28;1120;-48
2021/05/17 00:37:28;;;;;;;1.73;1.10;;;;;;;19.26;43.75;99747.56;350895;28;1140;-56
2021/05/17 00:37:40;;;;;;;2.17;1.15;;;;;;;19.28;43.36;99737.56;350946;28;1166;-51
2021/05/17 00:37:53;;;;;;;2.30;1.15;;;;;;;19.30;43.27;99743.59;350906;28;1196;-50
2021/05/17 00:38:04;;;;;;;2.15;1.02;;;;;;;19.27;43.91;99735.88;352425;28;1073;-48
2021/05/17 00:38:18;;;;;;;2.50;1.00;;;;;;;19.27;43.63;99751.94;352427;28;1158;-49
2021/05/17 00:38:30;;;;;;;2.45;1.10;;;;;;;19.25;43.64;99741.38;351600;28;24079;-52
2021/05/17 00:38:41;;;;;;;2.60;1.20;;;;;;;19.26;43.65;99744.88;351039;28;1155;-49
2021/05/17 00:38:54;;;;;;;3.20;1.10;;;;;;;19.28;43.41;99733.03;350853;28;1146;-56
2021/05/17 00:39:11;;;;;;;2.95;1.00;;;;;;;19.29;43.56;99740.09;351051;28;1189;-50
2021/05/17 00:39:25;;;;;;;2.90;1.27;;;;;;;19.27;43.44;99739.38;348865;28;69680;-53
2021/05/17 00:39:37;;;;;;;2.88;1.20;;;;;;;19.27;43.27;99738.56;350708;28;48089;-52
2021/05/17 00:39:49;;;;;;;2.83;1.10;;;;;;;19.29;43.31;99740.09;352144;28;1215;-58
2021/05/17 00:40:01;;;;;;;2.38;1.13;;;;;;;19.26;43.71;99735.03;352462;28;1152;-48
2021/05/17 00:40:15;;;;;;;2.70;1.10;;;;;;;19.27;43.62;99738.56;352385;28;1136;-53
2021/05/17 00:40:26;;;;;;;2.80;1.05;;;;;;;19.28;43.56;99741.06;352230;28;1231;-53
2021/05/17 00:40:38;;;;;;;2.72;1.13;;;;;;;19.28;43.27;99738.41;352400;28;1182;-50
2021/05/17 00:40:50;;;;;;;2.05;1.10;;;;;;;19.26;43.67;99734.19;350841;28;1139;-54
2021/05/17 00:41:02;;;;;;;1.98;1.10;;;;;;;19.26;43.48;99739.53;351057;28;1058;-50
2021/05/17 00:41:15;;;;;;;1.90;1.13;;;;;;;19.27;43.60;99733.19;350924;28;1097;-51
2021/05/17 00:41:29;;;;;;;2.28;1.17;;;;;;;19.28;43.55;99732.22;349942;28;24054;-52
2021/05/17 00:41:42;;;;;;;2.70;1.08;;;;;;;19.28;43.24;99729.53;351047;28;1146;-50
2021/05/17 00:41:54;;;;;;;2.63;1.00;;;;;;;19.28;43.82;99737.56;350912;28;1217;-55
2021/05/17 00:42:06;;;;;;;3.17;1.13;;;;;;;19.28;43.64;99734.88;351036;28;1048;-49
2021/05/17 00:42:18;;;;;;;2.97;1.13;;;;;;;19.26;43.58;99736.84;350679;28;1127;-54
2021/05/17 00:42:30;;;;;;;2.47;1.00;;;;;;;19.26;43.59;99739.53;350994;28;1249;-54
2021/05/17 00:42:43;;;;;;;2.28;0.98;;;;;;;19.26;43.64;99735.03;350969;28;1084;-53
2021/05/17 00:42:55;;;;;;;2.70;1.05;;;;;;;19.27;43.55;99731.34;351785;28;2910;-50
2021/05/17 00:43:09;;;;;;;2.70;1.13;;;;;;;19.28;43.38;99737.56;352297;28;1995;-55
2021/05/17 00:43:35;;;;;;;2.45;1.10;;;;;;;19.29;43.38;99729.38;351537;28;23974;-53
2021/05/17 00:43:46;;;;;;;2.75;1.08;;;;;;;19.29;43.48;99732.06;349994;28;69390;-52
2021/05/17 00:43:58;;;;;;;2.88;1.13;;;;;;;19.27;43.60;99739.38;352488;28;1051;-52
2021/05/17 00:44:11;;;;;;;2.35;1.20;;;;;;;19.27;43.68;99736.69;352324;28;1184;-52
2021/05/17 00:44:23;;;;;;;2.00;1.17;;;;;;;19.28;43.40;99732.22;350918;28;1140;-55
2021/05/17 00:44:39;;;;;;;2.30;1.23;;;;;;;19.30;43.57;99740.91;351031;28;1065;-51
2021/05/17 00:44:51;;;;;;;2.63;1.20;;;;;;;19.28;43.70;99737.56;348438;28;72040;-53
2021/05/17 00:45:11;;;;;;;2.72;1.10;;;;;;;19.30;43.36;99735.56;351035;28;1114;-53
2021/05/17 00:45:23;;;;;;;3.05;1.10;;;;;;;19.28;43.38;99735.72;348521;28;72174;-53
2021/05/17 00:45:35;;;;;;;2.80;1.20;;;;;;;19.26;43.53;99735.03;350931;28;1202;-51
2021/05/17 00:45:47;;;;;;;2.83;1.30;;;;;;;19.27;43.59;99736.69;350834;28;1109;-54
2021/05/17 00:46:02;;;;;;;2.72;1.30;;;;;;;19.29;43.59;99745.44;349569;28;1206;-58
2021/05/17 00:46:14;;;;;;;2.63;1.15;;;;;;;19.28;43.51;99738.41;348064;28;46620;-53
2021/05/17 00:46:26;;;;;;;3.53;1.20;;;;;;;19.27;43.54;99735.88;350782;28;1143;-51
2021/05/17 00:46:39;;;;;;;3.13;1.20;;;;;;;19.29;43.67;99739.25;350920;28;1132;-53
2021/05/17 00:46:52;;;;;;;2.25;1.08;;;;;;;19.31;43.37;99742.59;350794;28;1248;-52
2021/05/17 00:47:09;;;;;;;1.50;0.90;;;;;;;19.30;43.47;99748.94;350868;28;1202;-53
2021/05/17 00:47:24;;;;;;;2.28;1.10;;;;;;;19.27;43.67;99738.56;348507;28;71870;-52
2021/05/17 00:47:41;;;;;;;2.97;1.20;;;;;;;19.28;43.50;99742.91;350213;28;24495;-56
2021/05/17 00:47:53;;;;;;;3.35;1.10;;;;;;;19.27;43.57;99747.41;348468;28;69638;-53
2021/05/17 00:48:06;;;;;;;3.03;1.10;;;;;;;19.27;43.71;99741.22;352401;28;1204;-53
2021/05/17 00:48:18;;;;;;;2.85;1.00;;;;;;;19.26;43.76;99745.75;352298;28;1297;-55
2021/05/17 00:48:30;;;;;;;3.33;1.00;;;;;;;19.26;43.71;99743.06;352356;28;1221;-55
2021/05/17 00:48:42;;;;;;;3.53;1.00;;;;;;;19.26;43.88;99744.88;352466;28;1089;-52
2021/05/17 00:48:54;;;;;;;3.15;1.20;;;;;;;19.25;43.57;99743.22;352475;28;1161;-54
2021/05/17 00:49:06;;;;;;;2.80;1.30;;;;;;;19.24;43.78;99741.53;352378;28;1088;-56
2021/05/17 00:49:18;;;;;;;2.10;1.20;;;;;;;19.23;44.04;99745.22;352473;28;1167;-50
2021/05/17 00:49:30;;;;;;;2.00;1.10;;;;;;;19.22;43.63;99741.69;352441;28;2404;-55
2021/05/17 00:49:44;;;;;;;2.72;1.10;;;;;;;19.25;43.64;99743.22;350965;28;1063;-54
2021/05/17 00:49:57;;;;;;;3.60;1.30;;;;;;;19.25;43.57;99743.22;350880;28;24018;-54
2021/05/17 00:50:13;;;;;;;2.92;1.30;;;;;;;19.24;43.57;99741.53;351023;28;1231;-54
2021/05/17 00:50:26;;;;;;;1.67;1.00;;;;;;;19.24;43.82;99747.72;348458;28;71970;-48
2021/05/17 00:50:38;;;;;;;2.05;1.00;;;;;;;19.25;43.52;99737.88;350931;28;1122;-56
2021/05/17 00:50:50;;;;;;;2.58;1.00;;;;;;;19.26;43.48;99748.44;350746;28;1139;-57
2021/05/17 00:51:04;;;;;;;2.60;1.00;;;;;;;19.26;43.64;99743.06;350897;28;1237;-57
2021/05/17 00:51:16;;;;;;;2.35;1.00;;;;;;;19.27;43.42;99738.56;349632;28;1180;-52
2021/05/17 00:51:28;;;;;;;2.78;1.20;;;;;;;19.26;43.68;99745.75;349521;28;1073;-55
2021/05/17 00:51:40;;;;;;;2.85;1.23;;;;;;;19.26;43.83;99740.41;350101;28;1105;-60
2021/05/17 00:51:52;;;;;;;2.28;1.20;;;;;;;19.28;43.59;99737.56;350810;28;1133;-58
2021/05/17 00:52:05;;;;;;;2.28;1.20;;;;;;;19.29;43.54;99745.44;351085;28;1276;-61
2021/05/17 00:52:18;;;;;;;2.55;1.10;;;;;;;19.28;43.57;99741.06;350904;28;1228;-60
2021/05/17 00:52:32;;;;;;;2.72;1.20;;;;;;;19.28;43.50;99742.91;350758;28;1147;-59
2021/05/17 00:52:45;;;;;;;3.05;1.20;;;;;;;19.28;43.22;99737.56;350940;28;1097;-60
2021/05/17 00:52:57;;;;;;;2.63;1.20;;;;;;;19.28;43.62;99746.44;351022;28;1048;-60
2021/05/17 00:53:10;;;;;;;2.15;1.10;;;;;;;19.28;43.43;99743.75;350988;28;1295;-56
2021/05/17 00:53:22;;;;;;;2.58;1.15;;;;;;;19.31;43.39;99745.28;352212;28;1160;-61
2021/05/17 00:53:34;;;;;;;2.72;1.20;;;;;;;19.31;43.62;99731.91;352528;28;1144;-60
2021/05/17 00:53:46;;;;;;;2.70;1.20;;;;;;;19.31;43.49;99742.59;352339;28;1114;-53
2021/05/17 00:54:00;;;;;;;2.72;1.13;;;;;;;19.31;43.52;99738.06;352527;28;1221;-61
2021/05/17 00:54:11;;;;;;;2.38;1.08;;;;;;;19.32;43.54;99741.63;352419;28;1243;-60
2021/05/17 00:54:23;;;;;;;2.08;1.00;;;;;;;19.29;43.67;99740.09;352313;28;1144;-59
2021/05/17 00:54:35;;;;;;;2.30;1.10;;;;;;;19.29;43.44;99740.09;352384;28;1064;-58
2021/05/17 00:54:47;;;;;;;2.15;0.95;;;;;;;19.27;43.11;99736.69;351899;28;1187;-58
2021/05/17 00:54:59;;;;;;;2.13;1.00;;;;;;;19.25;43.61;99738.72;352434;28;1302;-60
2021/05/17 00:55:12;;;;;;;2.03;1.05;;;;;;;19.25;43.65;99744.06;352513;28;1162;-59
2021/05/17 00:55:25;;;;;;;2.10;1.02;;;;;;;19.27;43.56;99751.94;352358;28;1271;-51
2021/05/17 00:55:38;;;;;;;2.25;1.10;;;;;;;19.26;43.75;99747.56;351639;28;23753;-57
2021/05/17 00:55:50;;;;;;;2.45;1.20;;;;;;;19.27;43.72;99746.59;352262;28;1218;-50
2021/05/17 00:56:05;;;;;;;2.85;1.20;;;;;;;19.26;43.82;99745.75;351685;28;23988;-48
2021/05/17 00:56:17;;;;;;;3.50;1.20;;;;;;;19.27;43.62;99741.22;352303;28;1052;-46
2021/05/17 00:56:29;;;;;;;3.15;1.13;;;;;;;19.26;43.58;99745.75;352426;28;1099;-54
2021/05/17 00:56:41;;;;;;;3.33;1.02;;;;;;;19.24;43.67;99739.69;352293;28;1150;-55
2021/05/17 00:56:56;;;;;;;3.33;1.10;;;;;;;19.25;43.52;99735.19;352454;28;1107;-49
2021/05/17 00:57:08;;;;;;;3.28;1.23;;;;;;;19.27;43.49;99739.38;350747;28;49133;-47
2021/05/17 00:57:20;;;;;;;2.80;1.20;;;;;;;19.27;43.65;99739.38;351697;28;1147;-56
2021/05/17 00:57:35;;;;;;;2.65;1.30;;;;;;;19.26;43.74;99735.03;351515;28;24047;-51
2021/05/17 00:57:46;;;;;;;2.53;1.20;;;;;;;19.28;43.59;99737.56;352322;28;1106;-49
2021/05/17 00:57:58;;;;;;;3.25;1.48;;;;;;;19.27;43.79;99746.59;352519;28;1072;-54
2021/05/17 00:58:10;;;;;;;3.50;1.40;;;;;;;19.25;43.21;99740.56;352482;28;1149;-55
2021/05/17 00:58:22;;;;;;;3.47;1.30;;;;;;;19.26;43.33;99740.41;352201;28;1135;-52
2021/05/17 00:58:34;;;;;;;3.28;1.30;;;;;;;19.26;43.67;99744.88;352517;28;1085;-50
2021/05/17 00:58:49;;;;;;;3.63;1.33;;;;;;;19.25;43.24;99738.72;352396;28;1225;-60
2021/05/17 00:59:00;;;;;;;3.50;1.30;;;;;;;19.22;43.52;99747.06;350814;28;48514;-60
2021/05/17 00:59:12;;;;;;;3.53;1.23;;;;;;;19.23;43.60;99740.69;352236;28;1552;-59
2021/05/17 00:59:24;;;;;;;3.33;1.30;;;;;;;19.23;43.59;99731.81;352323;28;1119;-61
2021/05/17 00:59:36;;;;;;;2.97;1.30;;;;;;;19.23;43.55;99738.00;352467;28;1092;-59
2021/05/17 00:59:48;;;;;;;2.28;1.10;;;;;;;19.23;43.71;99739.84;352333;28;1146;-60
2021/05/17 01:00:00;;;;;;;2.33;1.08;;;;;;;19.24;43.53;99736.19;352476;28;1135;-53
2021/05/17 01:00:15;;;;;;;2.36;1.08;;;;;;;19.23;43.54;99729.16;352483;28;1126;-53
2021/05/17 01:00:29;;;;;;;2.75;1.20;;;;;;;19.24;43.53;99733.50;350711;27;48398;-60
2021/05/17 01:00:42;;;;;;;3.45;1.20;;;;;;;19.23;43.77;99740.69;352552;27;23780;-60
2021/05/17 01:00:54;;;;;;;3.90;1.20;;;;;;;19.21;43.62;99734.66;353679;27;1085;-61
2021/05/17 01:01:07;;;;;;;3.15;1.30;;;;;;;19.23;43.85;99739.84;353911;27;1070;-61
2021/05/17 01:01:21;;;;;;;2.20;1.17;;;;;;;19.25;43.72;99732.53;351274;27;71926;-60
2021/05/17 01:01:33;;;;;;;1.98;1.10;;;;;;;19.26;43.49;99736.84;353908;27;1053;-60